Flight Track Log - Related Links

Times and Time Zones

All times are in EST time to prevent confusion due to time zone crossing. See the LOG6848 flight status page for this flight to view local times or setup timezone preferences in your user account.

Time Position Orientation Groundspeed Altitude Reporting Facility
EST Latitude Longitude Course Direction KTS MPH feet Rate Location/Type
Mon 12:45:33 PM 55.4856 -5.7160 67° East 1 1 4,500  Level FlightAware UK
Mon 12:45:51 PM 55.4908 -5.6944 67° East 1 1 5,100 1,500 Climbing FlightAware UK
Mon 12:46:09 PM 55.4967 -5.6761 60° Northeast 1 1 5,400 1,333 Climbing FlightAware UK
Mon 12:46:27 PM 55.5037 -5.6587 55° Northeast 1 1 5,900 1,333 Climbing FlightAware UK
Mon 12:46:45 PM 55.5098 -5.6417 58° Northeast 1 1 6,200 1,000 Climbing FlightAware UK
Mon 12:47:09 PM 55.5176 -5.6164 61° Northeast 1 1 6,600 1,286 Climbing FlightAware UK
Mon 12:47:27 PM 55.5231 -5.5965 64° Northeast 1 1 7,100 1,000 Climbing FlightAware UK
Mon 12:47:45 PM 55.5295 -5.5780 59° Northeast 1 1 7,200 833 Climbing FlightAware UK
Mon 12:48:03 PM 55.5367 -5.5593 56° Northeast 1 1 7,600 1,167 Climbing FlightAware UK
Mon 12:48:21 PM 55.5437 -5.5402 57° Northeast 1 1 7,900 833 Climbing FlightAware UK
Mon 12:48:39 PM 55.5498 -5.5191 63° Northeast 1 1 8,100 1,000 Climbing FlightAware UK
Mon 12:48:57 PM 55.5555 -5.4980 65° Northeast 1 1 8,500 1,000 Climbing FlightAware UK
Mon 12:49:15 PM 55.5614 -5.4771 64° Northeast 1 1 8,700 833 Climbing FlightAware UK
Mon 12:49:33 PM 55.5708 -5.4574 50° Northeast 1 1 9,000 667 Climbing FlightAware UK
Mon 12:49:51 PM 55.5801 -5.4357 53° Northeast 1 1 9,100 167 Climbing FlightAware UK
Mon 12:50:09 PM 55.5900 -5.4119 54° Northeast 1 1 9,100  Level FlightAware UK
Mon 12:50:27 PM 55.6001 -5.3864 55° Northeast 1 1 9,100 -333 Level FlightAware UK
Mon 12:50:45 PM 55.6116 -5.3630 49° Northeast 1 1 8,900  Descending FlightAware UK
Mon 12:51:03 PM 55.6246 -5.3404 45° Northeast 1 1 9,100 333 Climbing FlightAware UK
Mon 12:51:21 PM 55.6376 -5.3184 44° Northeast 1 1 9,100  Level FlightAware UK
Mon 12:51:39 PM 55.6507 -5.2970 43° Northeast 1 1 9,100  Level FlightAware UK
Mon 12:51:57 PM 55.6632 -5.2756 44° Northeast 1 1 9,100 -333 Level FlightAware UK
Mon 12:52:15 PM 55.6757 -5.2541 44° Northeast 1 1 8,900 -167 Descending FlightAware UK
Mon 12:52:33 PM 55.6866 -5.2305 51° Northeast 1 1 9,000 167 Climbing FlightAware UK
Mon 12:52:51 PM 55.6967 -5.2067 53° Northeast 1 1 9,000  Level FlightAware UK
Mon 12:53:09 PM 55.7068 -5.1825 53° Northeast 1 1 9,000 -333 Level FlightAware UK
Mon 12:53:27 PM 55.7171 -5.1579 53° Northeast 1 1 8,800 -667 Descending FlightAware UK
Mon 12:53:45 PM 55.7275 -5.1334 53° Northeast 1 1 8,600 -500 Descending FlightAware UK
Mon 12:54:03 PM 55.7381 -5.1091 52° Northeast 1 1 8,500 -333 Descending FlightAware UK
Mon 12:54:21 PM 55.7489 -5.0847 52° Northeast 1 1 8,400  Descending FlightAware UK
Mon 12:54:39 PM 55.7599 -5.0618 50° Northeast 1 1 8,500 -167 Climbing FlightAware UK
Mon 12:54:57 PM 55.7709 -5.0396 48° Northeast 1 1 8,300 -667 Descending FlightAware UK
Mon 12:55:15 PM 55.7823 -5.0177 47° Northeast 1 1 8,100 -500 Descending FlightAware UK
Mon 12:55:33 PM 55.7942 -4.9958 46° Northeast 1 1 8,000 -500 Descending FlightAware UK
Mon 12:55:51 PM 55.8061 -4.9737 46° Northeast 1 1 7,800 -667 Descending FlightAware UK
Mon 12:56:09 PM 55.8179 -4.9513 47° Northeast 1 1 7,600 -500 Descending FlightAware UK
Mon 12:56:27 PM 55.8296 -4.9287 47° Northeast 1 1 7,500 -667 Descending FlightAware UK
Mon 12:56:45 PM 55.8409 -4.9059 48° Northeast 1 1 7,200 -833 Descending FlightAware UK
Mon 12:57:03 PM 55.8521 -4.8828 49° Northeast 1 1 7,000 -833 Descending FlightAware UK
Mon 12:57:21 PM 55.8610 -4.8572 58° Northeast 1 1 6,700 -833 Descending FlightAware UK
Mon 12:57:39 PM 55.8705 -4.8315 56° Northeast 1 1 6,500 -833 Descending FlightAware UK
Mon 12:57:57 PM 55.8798 -4.8053 58° Northeast 1 1 6,200 -833 Descending FlightAware UK
Mon 12:58:15 PM 55.8887 -4.7792 59° Northeast 1 1 6,000 -833 Descending FlightAware UK
Mon 12:58:33 PM 55.8971 -4.7525 60° Northeast 1 1 5,700 -1,000 Descending FlightAware UK
Mon 12:58:51 PM 55.9054 -4.7254 61° Northeast 1 1 5,400 -833 Descending FlightAware UK
Mon 12:59:09 PM 55.9138 -4.6983 61° Northeast 1 1 5,200 -833 Descending FlightAware UK
Mon 12:59:27 PM 55.9182 -4.6698 75° East 1 1 4,900 -1,000 Descending FlightAware UK
Mon 12:59:45 PM 55.9210 -4.6410 80° East 1 1 4,600 -1,000 Descending FlightAware UK
Mon 01:00:03 PM 55.9222 -4.6126 86° East 1 1 4,300 -1,000 Descending FlightAware UK
Mon 01:00:21 PM 55.9226 -4.5860 88° East 1 1 4,000 -1,167 Descending FlightAware UK
Mon 01:00:39 PM 55.9223 -4.5591 91° East 1 1 3,600 -1,000 Descending FlightAware UK
Mon 01:00:57 PM 55.9221 -4.5329 91° East 1 1 3,400 -833 Descending FlightAware UK
Mon 01:01:15 PM 55.9218 -4.5070 91° East 1 1 3,100 -833 Descending FlightAware UK
Mon 01:01:33 PM 55.9216 -4.4815 91° East 1 1 2,900 -667 Descending FlightAware UK
Mon 01:01:51 PM 55.9198 -4.4569 98° East 1 1 2,700 -833 Descending FlightAware UK
Mon 01:02:09 PM 55.9155 -4.4373 111° Southeast 1 1 2,400 -667 Descending FlightAware UK
Mon 01:02:27 PM 55.9097 -4.4243 129° Southeast 1 1 2,300  Descending FlightAware UK
Mon 01:02:45 PM 55.9040 -4.4158 140° Southeast 1 1 2,400  Climbing FlightAware UK
Mon 01:03:03 PM 55.8999 -4.4076 132° Southeast 1 1 2,300 -833 Descending FlightAware UK
Mon 01:03:21 PM 55.8951 -4.4004 140° Southeast 1 1 1,900 -1,000 Descending FlightAware UK
Mon 01:03:39 PM 55.8889 -4.4036 196° South 1 1 1,700 -667 Descending FlightAware UK
Mon 01:03:57 PM 55.8848 -4.4095 218° Southwest 1 1 1,500 -500 Descending FlightAware UK
Mon 01:04:15 PM 55.8807 -4.4166 224° Southwest 1 1 1,400 -500 Descending FlightAware UK
Mon 01:04:33 PM 55.8768 -4.4233 224° Southwest 1 1 1,200 -333 Descending FlightAware UK
Mon 01:04:51 PM 55.8742 -4.4284 228° Southwest 1 1 1,200 167 Level FlightAware UK
Mon 01:05:09 PM 55.8725 -4.4314 225° Southwest 1 1 1,300 167 Climbing FlightAware UK
Mon 01:05:27 PM 55.8704 -4.4351 225° Southwest 1 1 1,300  Level FlightAware UK
Mon 01:05:45 PM 55.8686 -4.4371 211° Southwest 1 1 1,300  Level FlightAware UK
Mon 01:06:03 PM 55.8668 -4.4380 195° South 1 1 1,300  Level FlightAware UK
Mon 01:08:00 PM 55.8719 -4.4331 28° Northeast  Level Estimated
Mon 01:15:00 PM 55.8719 -4.4331 29° Northeast  Level Estimated
Mon 01:16:00 PM 55.8719 -4.4331 29° Northeast  Level Estimated
Mon 01:17:00 PM 55.8719 -4.4331 29° Northeast  Level Estimated
Mon 01:18:00 PM 55.8719 -4.4331 29° Northeast  Level Estimated
Mon 01:19:00 PM 55.8719 -4.4331 29° Northeast  Level Estimated
Mon 01:20:00 PM 55.8719 -4.4331 29° Northeast  Level Estimated
Mon 01:21:00 PM 55.8719 -4.4331 29° Northeast  Level Estimated
Mon 01:22:00 PM 55.8719 -4.4331 29° Northeast  Level Estimated
Mon 01:23:00 PM 55.8719 -4.4331 29° Northeast  Level Estimated
Mon 01:24:00 PM 55.8719 -4.4331 29° Northeast  Level Estimated
Mon 01:25:00 PM 55.8719 -4.4331 29° Northeast  Level Estimated
Mon 01:26:00 PM 55.8719 -4.4331 29° Northeast  Level Estimated
Mon 01:27:00 PM 55.8719 -4.4331 29° Northeast  Level Estimated
Mon 01:28:00 PM 55.8719 -4.4331 29° Northeast  Level Estimated
Mon 01:29:00 PM 55.8719 -4.4331 29° Northeast  Level Estimated
Mon 01:30:00 PM 55.8719 -4.4331 29° Northeast  Level Estimated
Mon 01:31:00 PM 55.8719 -4.4331 29° Northeast  Level Estimated
Mon 01:32:00 PM 55.8719 -4.4331 29° Northeast  Level Estimated
Mon 01:33:00 PM 55.8719 -4.4331 29° Northeast  Level Estimated
Mon 01:34:00 PM 55.8719 -4.4331 29° Northeast  Level Estimated
Mon 01:35:00 PM 55.8719 -4.4331 29° Northeast  Level Estimated
Mon 01:36:00 PM 55.8719 -4.4331 29° Northeast  Level Estimated
Mon 01:37:00 PM 55.8719 -4.4331 29° Northeast  Level Estimated
Mon 01:38:00 PM 55.8719 -4.4331 29° Northeast  Level Estimated
Mon 01:39:00 PM 55.8719 -4.4331 29° Northeast  Level Estimated
Mon 01:40:00 PM 55.8719 -4.4331 29° Northeast  Level Estimated
Mon 01:41:00 PM 55.8719 -4.4331 29° Northeast  Level Estimated
Mon 01:42:00 PM 55.8719 -4.4331 29° Northeast  Level Estimated
Mon 01:43:00 PM 55.8719 -4.4331 29° Northeast  Level Estimated
Mon 01:44:00 PM 55.8719 -4.4331 29° Northeast  Level Estimated
Mon 01:45:00 PM 55.8719 -4.4331 29° Northeast  Level Estimated
Mon 01:46:00 PM 55.8719 -4.4331 29° Northeast  Level Estimated

Login

Don't have an account? Register now (free) for customized features, flight alerts, and more!